Adelma Beach, Washington
Current Conditions -  °F | °C
As of 5:56 AM on Monday 20 Oct 2014 (Local Time) from KNUW Reporting Station
Overcast Overcast  
Wind Chill: 62°   Ceiling: 1900
Heat Index: 62°   Visibility: 10mi
Dew Point: 56°   Wind: 16mph
Humidity: 80%   Direction: 150°SSE
Pressure: 29.65"   Gusts: NA
Location:  48.026°N, 122.859°W
Report Text: KNUW 201256Z 15014KT 10SM SCT014 BKN019 OVC038 17/13 A2965 RMK AO2 SLP044 T01670133 $
Loading
Personal Weather Stations






























Interactive Weather Map New forecast layout! Learn more

10-Day Weather Forecast

Advertisements
Track Severe Weather on mobile